createdAt,value
2019-02-26T00:02:23.760Z,7.80
2019-02-26T00:04:53.967Z,7.90
2019-02-26T00:07:25.153Z,7.90
2019-02-26T00:09:55.099Z,7.90
2019-02-26T00:12:23.889Z,7.80
2019-02-26T00:14:52.929Z,7.50
2019-02-26T00:17:21.761Z,7.50
2019-02-26T00:19:49.408Z,7.50
2019-02-26T00:22:18.249Z,7.40
2019-02-26T00:24:46.632Z,7.60
2019-02-26T00:27:14.298Z,7.60
2019-02-26T00:29:42.048Z,7.60
2019-02-26T00:32:11.732Z,7.60
2019-02-26T00:34:41.097Z,7.60
2019-02-26T00:37:08.719Z,7.40
2019-02-26T00:39:36.214Z,7.40
2019-02-26T00:42:05.221Z,7.40
2019-02-26T00:44:35.258Z,7.40
2019-02-26T00:47:04.804Z,7.20
2019-02-26T00:49:32.366Z,7.20
2019-02-26T00:52:00.271Z,7.10
2019-02-26T00:54:29.209Z,6.90
2019-02-26T00:57:01.027Z,6.80
2019-02-26T00:59:27.071Z,6.90
2019-02-26T01:01:55.240Z,6.80
2019-02-26T01:04:24.277Z,6.60
2019-02-26T01:06:51.778Z,6.90
2019-02-26T01:09:19.262Z,7.20
2019-02-26T01:11:48.130Z,6.60
2019-02-26T01:14:18.583Z,7.00
2019-02-26T01:16:48.206Z,6.80
2019-02-26T01:19:17.609Z,6.80
2019-02-26T01:21:45.942Z,7.00
2019-02-26T01:24:13.438Z,6.80
2019-02-26T01:26:43.535Z,6.80
2019-02-26T01:29:11.003Z,7.00
2019-02-26T01:31:38.866Z,7.10
2019-02-26T01:34:06.465Z,6.90
2019-02-26T01:36:34.003Z,6.60
2019-02-26T01:39:01.515Z,6.50
2019-02-26T01:41:29.005Z,6.50
2019-02-26T01:43:56.591Z,6.60
2019-02-26T01:46:24.050Z,6.30
2019-02-26T01:48:53.061Z,6.30
2019-02-26T01:51:22.300Z,6.40
2019-02-26T01:53:51.934Z,6.20
2019-02-26T01:56:21.315Z,6.40
2019-02-26T01:58:56.403Z,6.10
2019-02-26T02:01:21.376Z,5.90
2019-02-26T02:03:50.490Z,6.10
2019-02-26T02:06:18.612Z,6.10
2019-02-26T02:08:48.265Z,6.20
2019-02-26T02:11:16.787Z,6.40
2019-02-26T02:13:44.703Z,6.30
2019-02-26T02:16:12.238Z,6.50
2019-02-26T02:18:43.752Z,6.20
2019-02-26T02:21:09.534Z,6.40
2019-02-26T02:23:37.271Z,6.40
2019-02-26T02:26:07.122Z,6.20
2019-02-26T02:28:35.649Z,6.10
2019-02-26T02:31:03.854Z,6.30
2019-02-26T02:33:32.965Z,6.30
2019-02-26T02:36:01.498Z,6.30
2019-02-26T02:38:29.282Z,6.30
2019-02-26T02:40:57.206Z,6.00
2019-02-26T02:43:25.288Z,6.10
2019-02-26T02:45:55.120Z,6.00
2019-02-26T02:48:22.228Z,6.00
2019-02-26T02:50:49.912Z,5.80
2019-02-26T02:53:21.079Z,5.80
2019-02-26T02:55:49.492Z,5.60
2019-02-26T02:58:18.276Z,5.70
2019-02-26T03:00:49.347Z,5.60
2019-02-26T03:03:16.977Z,5.50
2019-02-26T03:05:45.867Z,5.60
2019-02-26T03:08:15.836Z,5.40
2019-02-26T03:10:45.039Z,5.50
2019-02-26T03:13:14.334Z,5.70
2019-02-26T03:15:42.287Z,5.60
2019-02-26T03:18:12.524Z,5.40
2019-02-26T03:20:40.490Z,5.70
2019-02-26T03:23:09.862Z,5.70
2019-02-26T03:25:37.414Z,5.70
2019-02-26T03:28:05.147Z,5.70
2019-02-26T03:30:38.139Z,5.40
2019-02-26T03:33:04.629Z,5.90
2019-02-26T03:35:31.998Z,5.80
2019-02-26T03:38:01.394Z,5.80
2019-02-26T03:40:32.383Z,5.80
2019-02-26T03:43:01.342Z,5.70
2019-02-26T03:45:29.193Z,5.70
2019-02-26T03:47:58.042Z,5.70
2019-02-26T03:50:27.174Z,5.40
2019-02-26T03:52:55.448Z,5.80
2019-02-26T03:55:23.278Z,5.80
2019-02-26T03:57:54.425Z,5.80
2019-02-26T04:00:21.122Z,5.60
2019-02-26T04:02:51.273Z,5.50
2019-02-26T04:05:18.537Z,5.50
2019-02-26T04:07:49.060Z,5.50
2019-02-26T04:10:15.548Z,5.70
2019-02-26T04:12:45.066Z,5.70
2019-02-26T04:15:13.590Z,5.50
2019-02-26T04:17:42.224Z,5.40
2019-02-26T04:20:11.904Z,5.30
2019-02-26T04:22:42.921Z,5.30
2019-02-26T04:25:27.939Z,5.30
2019-02-26T04:28:10.978Z,5.30
2019-02-26T04:31:17.716Z,5.40
2019-02-26T04:34:18.907Z,5.20
2019-02-26T04:37:24.772Z,5.40
2019-02-26T04:40:27.229Z,5.50
2019-02-26T04:43:13.009Z,5.10
2019-02-26T04:46:17.818Z,5.50
2019-02-26T04:48:45.526Z,5.20
2019-02-26T04:51:13.314Z,5.10
2019-02-26T04:54:02.108Z,5.10
2019-02-26T04:56:33.512Z,5.50
2019-02-26T04:58:59.603Z,4.90
2019-02-26T05:01:27.102Z,5.30
2019-02-26T05:03:55.155Z,5.20
2019-02-26T05:06:22.670Z,5.30
2019-02-26T05:09:02.870Z,5.30
2019-02-26T05:11:34.978Z,5.10
2019-02-26T05:14:01.570Z,5.40
2019-02-26T05:16:32.697Z,5.40
2019-02-26T05:18:59.072Z,5.20
2019-02-26T05:21:27.135Z,5.20
2019-02-26T05:23:57.682Z,5.20
2019-02-26T05:26:25.733Z,5.10
2019-02-26T05:28:53.533Z,5.10
2019-02-26T05:31:21.123Z,5.40
2019-02-26T05:33:50.167Z,4.80
2019-02-26T05:36:19.000Z,5.30
2019-02-26T05:38:46.891Z,5.10
2019-02-26T05:41:15.131Z,5.10
2019-02-26T05:43:43.270Z,5.10
2019-02-26T05:46:11.160Z,4.90
2019-02-26T05:48:39.959Z,4.90
2019-02-26T05:51:10.864Z,4.90
2019-02-26T05:53:38.094Z,5.10
2019-02-26T05:56:08.766Z,5.30
2019-02-26T05:58:36.746Z,4.80
2019-02-26T06:01:06.415Z,5.00
2019-02-26T06:03:34.622Z,4.90
2019-02-26T06:06:02.851Z,4.90
2019-02-26T06:08:33.675Z,5.10
2019-02-26T06:10:59.735Z,4.80
2019-02-26T06:13:29.105Z,5.10
2019-02-26T06:16:01.740Z,4.70
2019-02-26T06:18:27.262Z,4.80
2019-02-26T06:20:56.019Z,4.90
2019-02-26T06:23:28.071Z,4.90
2019-02-26T06:25:58.129Z,4.80
2019-02-26T06:28:24.858Z,4.90
2019-02-26T06:30:52.464Z,4.90
2019-02-26T06:33:20.612Z,4.80
2019-02-26T06:35:48.370Z,4.90
2019-02-26T06:38:16.532Z,4.80
2019-02-26T06:40:47.076Z,4.70
2019-02-26T06:43:14.618Z,4.50
2019-02-26T06:45:43.558Z,4.60
2019-02-26T06:48:14.670Z,4.60
2019-02-26T06:50:41.572Z,4.80
2019-02-26T06:53:11.154Z,4.80
2019-02-26T06:55:40.026Z,4.90
2019-02-26T06:58:35.799Z,5.30
2019-02-26T07:01:04.626Z,5.00
2019-02-26T07:03:32.866Z,5.50
2019-02-26T07:06:03.159Z,5.20
2019-02-26T07:08:30.981Z,5.60
2019-02-26T07:11:00.034Z,5.40
2019-02-26T07:13:27.554Z,5.60
2019-02-26T07:15:55.458Z,5.30
2019-02-26T07:18:23.668Z,5.40
2019-02-26T07:20:53.126Z,5.80
2019-02-26T07:23:21.354Z,5.90
2019-02-26T07:25:49.095Z,6.00
2019-02-26T07:28:18.270Z,6.00
2019-02-26T07:30:46.963Z,6.20
2019-02-26T07:33:15.131Z,6.20
2019-02-26T07:35:42.793Z,6.20
2019-02-26T07:38:10.418Z,6.50
2019-02-26T07:40:40.375Z,6.80
2019-02-26T07:43:09.845Z,6.60
2019-02-26T07:45:37.143Z,6.80
2019-02-26T07:48:04.759Z,6.80
2019-02-26T07:50:37.445Z,7.10
2019-02-26T07:53:02.514Z,8.00
2019-02-26T07:55:32.552Z,11.40
2019-02-26T07:57:59.627Z,14.80
2019-02-26T08:00:27.356Z,17.10
2019-02-26T08:02:57.825Z,18.80
2019-02-26T08:05:28.306Z,20.10
2019-02-26T08:07:56.514Z,21.00
2019-02-26T08:10:25.117Z,21.40
2019-02-26T08:12:52.919Z,21.70
2019-02-26T08:15:20.798Z,22.20
2019-02-26T08:17:53.222Z,22.50
2019-02-26T08:20:18.512Z,22.80
2019-02-26T08:22:46.710Z,23.30
2019-02-26T08:25:14.606Z,23.60
2019-02-26T08:27:43.024Z,23.90
2019-02-26T08:30:17.853Z,23.80
2019-02-26T08:32:48.556Z,23.50
2019-02-26T08:35:18.088Z,22.60
2019-02-26T08:37:44.649Z,23.40
2019-02-26T08:40:13.883Z,23.80
2019-02-26T08:42:41.998Z,24.00
2019-02-26T08:45:12.947Z,24.40
2019-02-26T08:47:42.111Z,24.50
2019-02-26T08:50:12.348Z,24.50
2019-02-26T08:52:40.050Z,23.90
2019-02-26T08:55:10.396Z,23.90
2019-02-26T08:57:38.574Z,23.80
2019-02-26T09:00:09.514Z,23.80
2019-02-26T09:02:37.450Z,23.30
2019-02-26T09:05:07.464Z,23.30
2019-02-26T09:07:35.736Z,23.70
2019-02-26T09:10:03.982Z,23.30
2019-02-26T09:12:32.208Z,23.70
2019-02-26T09:15:00.261Z,24.20
2019-02-26T09:17:31.866Z,24.00
2019-02-26T09:20:08.375Z,24.10
2019-02-26T09:22:28.485Z,24.50
2019-02-26T09:24:57.407Z,24.60
2019-02-26T09:27:27.207Z,25.30
2019-02-26T09:29:55.830Z,24.70
2019-02-26T09:32:23.318Z,24.90
2019-02-26T09:34:52.028Z,25.20
2019-02-26T09:37:20.515Z,24.90
2019-02-26T09:39:47.998Z,24.70
2019-02-26T09:42:15.532Z,25.00
2019-02-26T09:44:45.010Z,25.20
2019-02-26T09:47:12.830Z,25.10
2019-02-26T09:49:40.670Z,25.40
2019-02-26T09:52:08.128Z,25.80
2019-02-26T09:54:40.241Z,26.30
2019-02-26T09:57:05.805Z,25.90
2019-02-26T09:59:35.772Z,26.10
2019-02-26T10:02:05.888Z,26.30
2019-02-26T10:04:34.606Z,25.90
2019-02-26T10:07:04.289Z,25.50
2019-02-26T10:09:34.871Z,25.60
2019-02-26T10:12:02.856Z,25.50
2019-02-26T10:14:33.365Z,25.50
2019-02-26T10:17:01.342Z,25.90
2019-02-26T10:19:31.519Z,25.80
2019-02-26T10:22:00.225Z,26.10
2019-02-26T10:24:30.177Z,26.10
2019-02-26T10:27:00.761Z,26.20
2019-02-26T10:29:28.167Z,27.20
2019-02-26T10:31:56.721Z,27.80
2019-02-26T10:34:28.158Z,27.70
2019-02-26T10:36:53.995Z,27.60
2019-02-26T10:39:23.730Z,27.60
2019-02-26T10:41:51.523Z,27.80
2019-02-26T10:44:19.592Z,28.20
2019-02-26T10:46:47.466Z,28.40
2019-02-26T10:49:15.289Z,28.10
2019-02-26T10:51:43.179Z,27.70
2019-02-26T10:54:13.342Z,27.90
2019-02-26T10:56:42.553Z,27.90
2019-02-26T10:59:12.597Z,27.80
2019-02-26T11:01:41.076Z,27.50
2019-02-26T11:04:08.708Z,27.40
2019-02-26T11:06:38.939Z,27.50
2019-02-26T11:09:10.290Z,27.70
2019-02-26T11:11:39.855Z,27.80
2019-02-26T11:14:10.427Z,27.50
2019-02-26T11:16:39.090Z,27.30
2019-02-26T11:19:07.550Z,27.60
2019-02-26T11:21:36.046Z,27.70
2019-02-26T11:24:05.980Z,28.20
2019-02-26T11:26:35.992Z,28.30
2019-02-26T11:29:03.365Z,28.70
2019-02-26T11:31:31.521Z,28.40
2019-02-26T11:34:01.028Z,28.20
2019-02-26T11:36:30.421Z,28.40
2019-02-26T11:38:59.925Z,28.70
2019-02-26T11:41:29.271Z,29.20
2019-02-26T11:43:57.812Z,29.20
2019-02-26T11:46:27.198Z,29.60
2019-02-26T11:48:55.510Z,29.20
2019-02-26T11:51:24.190Z,29.30
2019-02-26T11:53:52.135Z,28.60
2019-02-26T11:56:22.995Z,28.50
2019-02-26T11:58:49.387Z,28.60
2019-02-26T12:01:17.667Z,29.10
2019-02-26T12:03:45.530Z,29.40
2019-02-26T12:06:13.134Z,30.00
2019-02-26T12:08:43.130Z,29.50
2019-02-26T12:11:13.938Z,29.50
2019-02-26T12:13:42.292Z,29.10
2019-02-26T12:16:09.187Z,29.30
2019-02-26T12:18:37.281Z,29.70
2019-02-26T12:21:08.042Z,29.10
2019-02-26T12:23:37.395Z,28.70
2019-02-26T12:26:05.510Z,28.70
2019-02-26T12:28:35.907Z,28.70
2019-02-26T12:31:04.280Z,28.60
2019-02-26T12:33:32.784Z,28.60
2019-02-26T12:36:02.065Z,28.30
2019-02-26T12:38:30.046Z,28.00
2019-02-26T12:40:57.835Z,28.10
2019-02-26T12:43:25.713Z,28.40
2019-02-26T12:45:56.075Z,28.60
2019-02-26T12:48:23.211Z,28.40
2019-02-26T12:50:52.226Z,28.40
2019-02-26T12:53:23.482Z,28.50
2019-02-26T12:55:50.786Z,28.50
2019-02-26T12:58:20.722Z,28.30
2019-02-26T13:00:47.991Z,28.40
2019-02-26T13:03:19.858Z,28.40
2019-02-26T13:08:17.172Z,28.40
2019-02-26T13:10:49.660Z,28.40
2019-02-26T13:13:13.734Z,28.20
2019-02-26T13:15:41.258Z,28.30
2019-02-26T13:18:09.163Z,28.00
2019-02-26T13:20:37.089Z,27.90
2019-02-26T13:23:17.137Z,27.60
2019-02-26T13:25:35.045Z,27.60
2019-02-26T13:28:02.524Z,27.70
2019-02-26T13:30:30.374Z,27.30
2019-02-26T13:33:00.975Z,27.30
2019-02-26T13:35:27.666Z,27.00
2019-02-26T13:37:55.636Z,26.60
2019-02-26T13:40:23.615Z,26.60
2019-02-26T13:45:21.530Z,25.80
2019-02-26T13:47:49.491Z,25.60
2019-02-26T13:50:20.839Z,25.90
2019-02-26T13:52:49.030Z,26.00
2019-02-26T13:55:17.145Z,26.10
2019-02-26T13:57:45.479Z,26.20
2019-02-26T14:00:13.598Z,26.10
2019-02-26T14:02:41.162Z,25.70
2019-02-26T14:05:09.229Z,25.50
2019-02-26T14:07:36.687Z,25.10
2019-02-26T14:10:05.888Z,24.90
2019-02-26T14:12:33.763Z,24.50
2019-02-26T14:15:03.729Z,24.30
2019-02-26T14:17:31.322Z,24.20
2019-02-26T14:19:59.806Z,23.70
2019-02-26T14:22:27.436Z,23.40
2019-02-26T14:24:55.626Z,23.10
2019-02-26T14:27:23.710Z,23.00
2019-02-26T14:29:51.247Z,22.90
2019-02-26T14:32:19.694Z,22.80
2019-02-26T14:34:49.287Z,22.60
2019-02-26T14:37:16.927Z,22.30
2019-02-26T14:39:44.466Z,22.10
2019-02-26T14:42:12.245Z,21.90
2019-02-26T14:44:40.110Z,21.60
2019-02-26T14:47:08.294Z,21.40
2019-02-26T14:49:35.826Z,21.00
2019-02-26T14:52:03.411Z,21.00
2019-02-26T14:54:31.271Z,20.80
2019-02-26T14:56:59.336Z,20.40
2019-02-26T14:59:27.391Z,20.50
2019-02-26T15:01:55.273Z,20.50
2019-02-26T15:04:22.886Z,19.80
2019-02-26T15:06:50.798Z,20.00
2019-02-26T15:09:18.417Z,20.10
2019-02-26T15:11:47.010Z,20.20
2019-02-26T15:14:14.564Z,19.70
2019-02-26T15:16:42.451Z,19.80
2019-02-26T15:19:10.411Z,19.70
2019-02-26T15:21:37.976Z,19.80
2019-02-26T15:24:05.883Z,19.80
2019-02-26T15:26:33.459Z,19.80
2019-02-26T15:29:01.703Z,19.50
2019-02-26T15:31:29.926Z,19.30
2019-02-26T15:33:57.875Z,19.50
2019-02-26T15:36:25.466Z,19.50
2019-02-26T15:38:59.751Z,19.10
2019-02-26T15:41:28.187Z,19.10
2019-02-26T15:43:56.513Z,19.10
2019-02-26T15:46:24.531Z,19.40
2019-02-26T15:48:52.068Z,19.00
2019-02-26T15:51:20.682Z,19.10
2019-02-26T15:53:48.931Z,19.00
2019-02-26T15:56:16.814Z,19.30
2019-02-26T15:58:45.009Z,19.00
2019-02-26T16:01:15.180Z,19.00
2019-02-26T16:03:42.336Z,18.60
2019-02-26T16:06:10.046Z,18.70
2019-02-26T16:08:38.616Z,18.70
2019-02-26T16:11:06.345Z,18.50
2019-02-26T16:13:33.963Z,18.30
2019-02-26T16:16:01.775Z,18.50
2019-02-26T16:18:30.132Z,18.10
2019-02-26T16:20:57.966Z,18.10
2019-02-26T16:23:26.279Z,18.30
2019-02-26T16:25:53.893Z,17.90
2019-02-26T16:28:24.666Z,18.10
2019-02-26T16:30:55.677Z,18.00
2019-02-26T16:33:21.884Z,18.20
2019-02-26T16:35:49.958Z,17.80
2019-02-26T16:38:17.874Z,17.60
2019-02-26T16:40:45.691Z,17.70
2019-02-26T16:43:14.767Z,17.60
2019-02-26T16:45:43.151Z,17.50
2019-02-26T16:48:11.035Z,17.00
2019-02-26T16:50:39.426Z,17.20
2019-02-26T16:53:07.350Z,17.10
2019-02-26T16:55:34.987Z,17.00
2019-02-26T16:58:03.418Z,17.00
2019-02-26T17:00:31.098Z,16.80
2019-02-26T17:03:00.946Z,16.70
2019-02-26T17:05:28.543Z,16.70
2019-02-26T17:07:56.578Z,16.50
2019-02-26T17:10:29.132Z,16.40
2019-02-26T17:12:54.427Z,16.10
2019-02-26T17:15:26.763Z,16.40
2019-02-26T17:17:53.227Z,16.30
2019-02-26T17:20:22.542Z,16.10
2019-02-26T17:22:50.756Z,16.00
2019-02-26T17:25:19.134Z,16.00
2019-02-26T17:27:47.069Z,15.60
2019-02-26T17:30:14.939Z,15.80
2019-02-26T17:32:43.250Z,15.70
2019-02-26T17:35:11.638Z,15.70
2019-02-26T17:37:41.638Z,15.40
2019-02-26T17:40:10.322Z,15.30
2019-02-26T17:42:38.150Z,15.20
2019-02-26T17:45:07.694Z,15.20
2019-02-26T17:47:35.263Z,15.10
2019-02-26T17:50:03.210Z,14.90
2019-02-26T17:52:31.350Z,15.00
2019-02-26T17:54:59.428Z,14.90
2019-02-26T17:57:27.290Z,14.70
2019-02-26T17:59:55.007Z,14.50
2019-02-26T18:02:22.510Z,14.40
2019-02-26T18:04:50.637Z,14.10
2019-02-26T18:07:18.154Z,14.30
2019-02-26T18:09:46.302Z,14.10
2019-02-26T18:12:13.999Z,14.00
2019-02-26T18:14:41.533Z,14.30
2019-02-26T18:17:09.404Z,14.20
2019-02-26T18:19:36.878Z,14.10
2019-02-26T18:22:04.881Z,13.90
2019-02-26T18:24:32.451Z,13.90
2019-02-26T18:27:02.323Z,13.80
2019-02-26T18:29:29.787Z,13.70
2019-02-26T18:31:57.394Z,13.60
2019-02-26T18:34:25.293Z,13.70
2019-02-26T18:36:53.673Z,13.70
2019-02-26T18:39:22.619Z,13.50
2019-02-26T18:41:51.021Z,13.30
2019-02-26T18:44:20.617Z,13.30
2019-02-26T18:46:48.733Z,13.20
2019-02-26T18:49:16.326Z,13.10
2019-02-26T18:51:43.858Z,13.10
2019-02-26T18:54:11.643Z,13.10
2019-02-26T18:56:39.517Z,13.10
2019-02-26T18:59:07.359Z,12.90
2019-02-26T19:01:34.946Z,12.80
2019-02-26T19:04:02.479Z,13.00
2019-02-26T19:06:30.051Z,12.90
2019-02-26T19:08:57.591Z,12.60
2019-02-26T19:11:25.662Z,12.90
2019-02-26T19:13:54.022Z,12.80
2019-02-26T19:16:21.799Z,13.10
2019-02-26T19:18:49.399Z,12.90
2019-02-26T19:21:21.251Z,12.40
2019-02-26T19:23:47.121Z,12.90
2019-02-26T19:26:14.762Z,12.90
2019-02-26T19:28:42.614Z,12.90
2019-02-26T19:31:10.546Z,12.60
2019-02-26T19:33:38.546Z,12.90
2019-02-26T19:36:06.702Z,13.00
2019-02-26T19:38:34.840Z,12.80
2019-02-26T19:41:07.794Z,13.00
2019-02-26T19:43:35.494Z,13.00
2019-02-26T19:46:03.251Z,12.70
2019-02-26T19:48:33.903Z,12.80
2019-02-26T19:51:01.191Z,12.70
2019-02-26T19:53:34.454Z,12.60
2019-02-26T19:56:00.887Z,12.60
2019-02-26T19:58:28.634Z,12.30
2019-02-26T20:00:56.123Z,12.40
2019-02-26T20:03:24.166Z,12.10
2019-02-26T20:05:52.806Z,11.50
2019-02-26T20:08:20.720Z,12.20
2019-02-26T20:10:51.670Z,12.00
2019-02-26T20:13:18.661Z,12.00
2019-02-26T20:15:46.572Z,11.70
2019-02-26T20:18:20.469Z,11.90
2019-02-26T20:20:45.681Z,11.90
2019-02-26T20:23:13.390Z,11.90
2019-02-26T20:25:42.759Z,11.50
2019-02-26T20:28:10.904Z,11.80
2019-02-26T20:30:38.439Z,11.70
2019-02-26T20:33:06.451Z,11.80
2019-02-26T20:35:34.014Z,11.60
2019-02-26T20:38:01.630Z,11.60
2019-02-26T20:40:29.294Z,11.60
2019-02-26T20:43:01.289Z,11.50
2019-02-26T20:45:26.914Z,11.30
2019-02-26T20:47:55.102Z,11.40
2019-02-26T20:50:24.040Z,11.20
2019-02-26T20:52:52.042Z,11.40
2019-02-26T20:55:19.991Z,11.40
2019-02-26T20:57:47.622Z,11.60
2019-02-26T21:00:16.378Z,11.30
2019-02-26T21:02:44.209Z,11.20
2019-02-26T21:05:11.835Z,11.20
2019-02-26T21:07:39.359Z,11.20
2019-02-26T21:10:07.700Z,11.20
2019-02-26T21:12:35.842Z,11.10
2019-02-26T21:15:03.845Z,10.80
2019-02-26T21:17:31.658Z,10.90
2019-02-26T21:19:59.156Z,11.10
2019-02-26T21:22:26.771Z,10.90
2019-02-26T21:24:54.669Z,10.60
2019-02-26T21:27:23.796Z,10.70
2019-02-26T21:29:52.315Z,10.60
2019-02-26T21:32:19.795Z,10.60
2019-02-26T21:34:48.023Z,10.50
2019-02-26T21:37:16.223Z,10.60
2019-02-26T21:39:44.241Z,10.40
2019-02-26T21:42:11.867Z,10.10
2019-02-26T21:44:41.777Z,9.80
2019-02-26T21:47:09.122Z,10.30
2019-02-26T21:49:37.222Z,9.90
2019-02-26T21:52:08.690Z,9.90
2019-02-26T21:54:34.876Z,9.90
2019-02-26T21:57:02.426Z,9.70
2019-02-26T21:59:32.548Z,10.00
2019-02-26T22:01:59.730Z,9.60
2019-02-26T22:04:27.289Z,10.10
2019-02-26T22:06:55.146Z,9.80
2019-02-26T22:09:23.438Z,9.60
2019-02-26T22:11:51.337Z,9.60
2019-02-26T22:14:19.314Z,9.40
2019-02-26T22:16:48.991Z,9.50
2019-02-26T22:19:16.899Z,9.70
2019-02-26T22:21:52.101Z,9.60
2019-02-26T22:24:20.827Z,9.60
2019-02-26T22:26:48.576Z,9.50
2019-02-26T22:29:16.362Z,9.50
2019-02-26T22:31:43.934Z,9.30
2019-02-26T22:34:11.601Z,9.70
2019-02-26T22:36:39.054Z,9.40
2019-02-26T22:39:09.258Z,9.50
2019-02-26T22:41:36.736Z,9.50
2019-02-26T22:44:04.265Z,9.40
2019-02-26T22:46:33.897Z,9.60
2019-02-26T22:49:01.703Z,9.40
2019-02-26T22:51:29.235Z,8.70
2019-02-26T22:53:56.986Z,9.20
2019-02-26T22:56:24.811Z,8.90
2019-02-26T22:58:52.684Z,8.90
2019-02-26T23:01:42.185Z,8.80
2019-02-26T23:04:10.340Z,8.60
2019-02-26T23:06:37.923Z,8.50
2019-02-26T23:09:08.455Z,8.40
2019-02-26T23:11:36.327Z,8.60
2019-02-26T23:14:04.958Z,8.60
2019-02-26T23:16:34.478Z,8.20
2019-02-26T23:19:03.793Z,8.50
2019-02-26T23:21:32.586Z,8.60
2019-02-26T23:24:00.546Z,8.60
2019-02-26T23:26:28.571Z,8.60
2019-02-26T23:28:56.498Z,8.50
2019-02-26T23:31:24.612Z,8.50
2019-02-26T23:33:52.452Z,8.10
2019-02-26T23:36:20.221Z,8.20
2019-02-26T23:38:47.702Z,8.30
2019-02-26T23:41:15.649Z,8.20
2019-02-26T23:43:45.451Z,7.80
2019-02-26T23:46:13.041Z,7.90
2019-02-26T23:48:41.435Z,7.80
2019-02-26T23:51:09.252Z,7.90
2019-02-26T23:53:37.290Z,7.60
2019-02-26T23:56:04.925Z,7.70
2019-02-26T23:58:32.814Z,7.50
